Time;durP1;ratioP1;P1;durP2;ratioP2;P2;SDS_P1;SDS_P2;PMS_P1;PMS_P2;Temp;Humidity;BMP_temperature;BMP_pressure;BME280_temperature;BME280_humidity;BME280_pressure;Samples;Min_cycle;Max_cycle;Signal;HPM_P1;HPM_P2
2022/10/05 00:02:00;;;;;;;;;0.00;0.00;;;;;;;;4964468;28;48239;-96
2022/10/05 00:07:33;;;;;;;;;0.00;0.00;;;;;;;;4929366;28;44885;-96
2022/10/05 00:10:16;;;;;;;;;0.00;0.00;;;;;;;;4929745;28;45608;-96
2022/10/05 00:12:59;;;;;;;;;0.00;0.00;;;;;;;;4928962;28;46884;-96
2022/10/05 00:15:33;;;;;;;;;0.00;0.00;;;;;;;;4912939;28;45356;-96
2022/10/05 00:18:02;;;;;;;;;0.00;0.00;;;;;;;;4910500;28;45394;-96
2022/10/05 00:23:41;;;;;;;;;0.00;0.00;;;;;;;;4917549;28;45690;-96
2022/10/05 00:26:16;;;;;;;;;0.00;0.00;;;;;;;;4912726;28;45375;-96
2022/10/05 00:31:42;;;;;;;;;0.00;0.00;;;;;;;;4908279;28;45411;-96
2022/10/05 00:34:11;;;;;;;;;0.00;0.00;;;;;;;;4899469;28;47064;-96
2022/10/05 00:36:48;;;;;;;;;0.00;0.00;;;;;;;;4890493;29;45493;-96
2022/10/05 00:39:34;;;;;;;;;0.00;0.00;;;;;;;;4904418;28;45275;-96
2022/10/05 00:42:36;;;;;;;;;;;;;;;;;;;;;
2022/10/05 00:45:30;;;;;;;;;;;;;;;;;;;;;
2022/10/05 00:48:23;;;;;;;;;0.00;0.00;;;;;;;;4971348;28;72176;-96
2022/10/05 00:51:10;;;;;;;;;;;;;;;;;;;;;
2022/10/05 00:54:01;;;;;;;;;0.00;0.00;;;;;;;;4960000;28;68588;-96
2022/10/05 00:57:04;;;;;;;;;0.00;0.00;;;;;;;;4934248;28;45518;-96
2022/10/05 00:59:50;;;;;;;;;0.00;0.00;;;;;;;;4958465;28;45422;-96
2022/10/05 01:02:45;;;;;;;;;0.00;0.00;;;;;;;;4954302;28;45348;-96
2022/10/05 01:08:36;;;;;;;;;0.00;0.00;;;;;;;;4881357;29;46455;-96
2022/10/05 01:11:34;;;;;;;;;;;;;;;;;;;;;
2022/10/05 01:14:19;;;;;;;;;0.00;0.00;;;;;;;;4842991;29;68692;-96
2022/10/05 01:17:24;;;;;;;;;0.00;0.00;;;;;;;;4845357;29;45658;-96
2022/10/05 01:20:17;;;;;;;;;0.00;0.00;;;;;;;;4807548;29;48086;-96
2022/10/05 01:28:26;;;;;;;;;0.00;0.00;;;;;;;;5390748;23;46544;-96
2022/10/05 01:31:04;;;;;;;;;0.00;0.00;;;;;;;;4941835;28;47349;-96
2022/10/05 01:33:34;;;;;;;;;0.00;0.00;;;;;;;;4938433;28;46103;-96
2022/10/05 01:36:13;;;;;;;;;0.00;0.00;;;;;;;;4939367;28;45445;-96
2022/10/05 01:38:42;;;;;;;;;0.00;0.00;;;;;;;;4938139;28;45580;-96
2022/10/05 01:41:13;;;;;;;;;0.00;0.00;;;;;;;;4938399;28;47472;-96
2022/10/05 01:43:50;;;;;;;;;0.00;0.00;;;;;;;;4938891;28;45468;-96
2022/10/05 01:46:34;;;;;;;;;0.00;0.00;;;;;;;;4939041;28;45492;-96
2022/10/05 01:49:10;;;;;;;;;0.00;0.00;;;;;;;;4939550;28;45540;-96
2022/10/05 01:52:05;;;;;;;;;0.00;0.00;;;;;;;;4939413;28;47226;-95
2022/10/05 01:54:30;;;;;;;;;0.00;0.00;;;;;;;;4901968;28;45445;-96
2022/10/05 01:57:01;;;;;;;;;0.00;0.00;;;;;;;;4901915;28;45650;-96
2022/10/05 01:59:42;;;;;;;;;0.00;0.00;;;;;;;;4898635;28;45420;-96
2022/10/05 02:02:16;;;;;;;;;0.00;0.00;;;;;;;;4900383;29;47364;-96
2022/10/05 02:04:55;;;;;;;;;0.00;0.00;;;;;;;;4905489;29;45521;-96
2022/10/05 02:07:25;;;;;;;;;0.00;0.00;;;;;;;;4889109;29;45417;-96
2022/10/05 02:09:54;;;;;;;;;0.00;0.00;;;;;;;;4900735;29;45541;-96
2022/10/05 02:12:32;;;;;;;;;0.00;0.00;;;;;;;;4886988;28;47265;-95
2022/10/05 02:15:02;;;;;;;;;0.00;0.00;;;;;;;;4902197;28;45404;-96
2022/10/05 02:17:34;;;;;;;;;0.00;0.00;;;;;;;;4902663;28;45699;-96
2022/10/05 02:20:02;;;;;;;;;0.00;0.00;;;;;;;;4902655;28;45488;-96
2022/10/05 02:22:31;;;;;;;;;0.00;0.00;;;;;;;;4903802;28;48301;-96
2022/10/05 02:24:58;;;;;;;;;0.00;0.00;;;;;;;;4903346;28;45354;-96
2022/10/05 02:27:26;;;;;;;;;0.00;0.00;;;;;;;;4903733;28;45307;-96
2022/10/05 02:29:54;;;;;;;;;0.00;0.00;;;;;;;;4902365;28;45734;-96
2022/10/05 02:32:22;;;;;;;;;0.00;0.00;;;;;;;;4929294;28;47156;-96
2022/10/05 02:34:48;;;;;;;;;0.00;0.00;;;;;;;;4919442;28;46051;-96
2022/10/05 02:37:16;;;;;;;;;0.00;0.00;;;;;;;;4920366;28;45275;-96
2022/10/05 02:39:41;;;;;;;;;0.00;0.00;;;;;;;;4936001;28;45428;-96
2022/10/05 02:42:11;;;;;;;;;0.00;0.00;;;;;;;;4940124;28;47210;-96
2022/10/05 02:44:40;;;;;;;;;0.00;0.00;;;;;;;;4943779;28;46137;-96
2022/10/05 02:47:11;;;;;;;;;0.00;0.00;;;;;;;;4945972;28;45500;-96
2022/10/05 02:49:36;;;;;;;;;0.00;0.00;;;;;;;;4947217;28;45227;-96
2022/10/05 02:52:10;;;;;;;;;0.00;0.00;;;;;;;;4949379;28;48101;-96
2022/10/05 02:54:42;;;;;;;;;0.00;0.00;;;;;;;;4948558;28;45492;-96
2022/10/05 02:57:28;;;;;;;;;0.00;0.00;;;;;;;;4949847;28;45463;-96
2022/10/05 02:59:59;;;;;;;;;0.00;0.00;;;;;;;;4893975;29;45505;-96
2022/10/05 03:02:43;;;;;;;;;0.00;0.00;;;;;;;;4890763;29;47667;-96
2022/10/05 03:05:17;;;;;;;;;0.00;0.00;;;;;;;;4889133;29;45428;-96
2022/10/05 03:07:49;;;;;;;;;0.00;0.00;;;;;;;;4888894;29;45263;-96
2022/10/05 03:10:33;;;;;;;;;0.00;0.00;;;;;;;;4887173;29;45398;-96
2022/10/05 03:13:11;;;;;;;;;0.00;0.00;;;;;;;;4886831;29;47535;-96
2022/10/05 03:15:44;;;;;;;;;0.00;0.00;;;;;;;;4887401;29;45456;-96
2022/10/05 03:18:19;;;;;;;;;0.00;0.00;;;;;;;;4903424;29;44721;-96
2022/10/05 03:20:44;;;;;;;;;0.00;0.00;;;;;;;;4895106;29;45387;-96
2022/10/05 03:23:18;;;;;;;;;0.00;0.00;;;;;;;;4882690;29;48121;-96
2022/10/05 03:25:50;;;;;;;;;0.00;0.00;;;;;;;;4883091;29;45513;-96
2022/10/05 03:28:25;;;;;;;;;0.00;0.00;;;;;;;;4883629;29;45589;-96
2022/10/05 03:30:59;;;;;;;;;0.00;0.00;;;;;;;;4882918;29;45413;-96
2022/10/05 03:33:32;;;;;;;;;0.00;0.00;;;;;;;;4882442;29;47638;-96
2022/10/05 03:36:00;;;;;;;;;0.00;0.00;;;;;;;;4886625;28;46064;-96
2022/10/05 03:38:26;;;;;;;;;0.00;0.00;;;;;;;;4924415;28;45402;-96
2022/10/05 03:41:15;;;;;;;;;0.00;0.00;;;;;;;;4923204;28;45333;-96
2022/10/05 03:43:56;;;;;;;;;0.00;0.00;;;;;;;;4922650;28;47431;-96
2022/10/05 03:46:24;;;;;;;;;0.00;0.00;;;;;;;;4922482;28;45460;-96
2022/10/05 03:48:54;;;;;;;;;0.00;0.00;;;;;;;;4941619;28;45411;-96
2022/10/05 03:51:34;;;;;;;;;0.00;0.00;;;;;;;;4941515;28;45417;-96
2022/10/05 03:54:08;;;;;;;;;0.00;0.00;;;;;;;;4941373;28;48188;-96
2022/10/05 03:56:37;;;;;;;;;0.00;0.00;;;;;;;;4942541;28;45404;-96
2022/10/05 03:59:21;;;;;;;;;0.00;0.00;;;;;;;;4942693;28;45315;-96
2022/10/05 04:01:50;;;;;;;;;0.00;0.00;;;;;;;;4943037;28;45481;-96
2022/10/05 04:04:18;;;;;;;;;0.00;0.00;;;;;;;;4943063;28;47794;-96
2022/10/05 04:06:47;;;;;;;;;0.00;0.00;;;;;;;;4942345;28;45770;-96
2022/10/05 04:09:16;;;;;;;;;0.00;0.00;;;;;;;;4942934;28;45274;-96
2022/10/05 04:11:59;;;;;;;;;0.00;0.00;;;;;;;;4926865;28;45340;-96
2022/10/05 04:14:27;;;;;;;;;0.00;0.00;;;;;;;;4931443;28;45816;-96
2022/10/05 04:17:04;;;;;;;;;0.00;0.00;;;;;;;;4948367;28;45543;-96
2022/10/05 04:19:57;;;;;;;;;0.00;0.00;;;;;;;;4950091;28;45266;-96
2022/10/05 04:22:31;;;;;;;;;0.00;0.00;;;;;;;;4946081;28;45417;-96
2022/10/05 04:25:13;;;;;;;;;1.00;1.00;;;;;;;;4950448;28;47044;-96
2022/10/05 04:27:51;;;;;;;;;0.00;0.00;;;;;;;;4949077;28;45388;-96
2022/10/05 04:30:18;;;;;;;;;0.00;0.00;;;;;;;;4948847;28;46079;-96
2022/10/05 04:32:46;;;;;;;;;0.00;0.00;;;;;;;;4943834;28;45708;-96
2022/10/05 04:35:17;;;;;;;;;0.00;0.00;;;;;;;;4943654;28;47195;-96
2022/10/05 04:37:49;;;;;;;;;0.00;0.00;;;;;;;;4942886;28;45174;-96
2022/10/05 04:40:21;;;;;;;;;0.00;0.00;;;;;;;;4946994;28;45385;-96
2022/10/05 04:42:46;;;;;;;;;0.00;0.00;;;;;;;;4946322;28;45537;-96
2022/10/05 04:45:30;;;;;;;;;0.00;0.00;;;;;;;;4922722;28;47090;-96
2022/10/05 04:48:05;;;;;;;;;0.00;0.00;;;;;;;;4923488;28;45283;-96
2022/10/05 04:50:43;;;;;;;;;0.00;0.00;;;;;;;;4923002;28;45194;-96
2022/10/05 04:53:16;;;;;;;;;0.00;0.00;;;;;;;;4926219;28;45458;-96
2022/10/05 04:56:00;;;;;;;;;0.00;0.00;;;;;;;;4938966;28;47558;-96
2022/10/05 04:58:25;;;;;;;;;0.00;0.00;;;;;;;;4939150;28;45355;-96
2022/10/05 05:01:09;;;;;;;;;0.00;0.00;;;;;;;;4939438;28;45358;-96
2022/10/05 05:03:34;;;;;;;;;0.00;0.00;;;;;;;;4938969;28;44928;-96
2022/10/05 05:06:04;;;;;;;;;0.00;0.00;;;;;;;;4940301;28;47109;-96
2022/10/05 05:08:32;;;;;;;;;0.00;0.00;;;;;;;;4941160;28;44893;-96
2022/10/05 05:11:18;;;;;;;;;0.00;0.00;;;;;;;;4940546;28;45522;-96
2022/10/05 05:13:44;;;;;;;;;0.00;0.00;;;;;;;;4942487;28;45265;-96
2022/10/05 05:16:26;;;;;;;;;0.00;0.00;;;;;;;;4941967;28;47196;-96
2022/10/05 05:18:54;;;;;;;;;0.00;0.00;;;;;;;;4942774;28;45440;-96
2022/10/05 05:21:25;;;;;;;;;0.00;0.00;;;;;;;;4933907;28;45605;-96
2022/10/05 05:24:09;;;;;;;;;0.00;0.00;;;;;;;;4926272;28;45657;-96
2022/10/05 05:26:54;;;;;;;;;0.00;0.00;;;;;;;;4938754;28;48255;-96
2022/10/05 05:29:40;;;;;;;;;0.00;0.00;;;;;;;;4941482;28;45478;-96
2022/10/05 05:32:09;;;;;;;;;0.00;0.00;;;;;;;;4940147;28;45454;-96
2022/10/05 05:34:44;;;;;;;;;0.00;0.00;;;;;;;;4941694;28;45595;-96
2022/10/05 05:37:15;;;;;;;;;0.00;0.00;;;;;;;;4941078;28;47317;-96
2022/10/05 05:39:49;;;;;;;;;0.00;0.00;;;;;;;;4946597;28;45620;-96
2022/10/05 05:42:19;;;;;;;;;0.00;0.00;;;;;;;;4953588;28;44811;-96
2022/10/05 05:45:03;;;;;;;;;0.00;0.00;;;;;;;;4955634;28;45317;-96
2022/10/05 05:47:38;;;;;;;;;0.00;0.00;;;;;;;;4939434;28;47653;-96
2022/10/05 05:50:16;;;;;;;;;0.00;0.00;;;;;;;;4954193;28;45253;-96
2022/10/05 05:55:33;;;;;;;;;0.00;0.00;;;;;;;;5656371;23;45929;-96
2022/10/05 05:58:08;;;;;;;;;0.00;0.00;;;;;;;;4970956;28;47276;-96
2022/10/05 06:00:37;;;;;;;;;0.00;0.00;;;;;;;;4971008;28;44980;-96
2022/10/05 06:03:12;;;;;;;;;0.00;0.00;;;;;;;;4968757;28;45189;-96
2022/10/05 06:05:43;;;;;;;;;0.00;0.00;;;;;;;;4951952;28;45249;-96
2022/10/05 06:08:27;;;;;;;;;0.00;0.00;;;;;;;;4967798;28;47465;-96
2022/10/05 06:10:57;;;;;;;;;0.00;0.00;;;;;;;;4970331;28;45513;-96
2022/10/05 06:13:29;;;;;;;;;0.00;0.00;;;;;;;;4969147;28;44731;-96
2022/10/05 06:16:09;;;;;;;;;0.00;0.00;;;;;;;;4963972;28;45371;-96
2022/10/05 06:18:38;;;;;;;;;0.00;0.00;;;;;;;;4966553;28;48499;-96
2022/10/05 06:21:11;;;;;;;;;0.00;0.00;;;;;;;;4963805;28;46275;-96
2022/10/05 06:23:41;;;;;;;;;0.00;0.00;;;;;;;;4967844;28;45470;-90
2022/10/05 06:26:10;;;;;;;;;0.00;0.00;;;;;;;;4953716;28;45274;-89
2022/10/05 06:28:36;;;;;;;;;0.00;0.00;;;;;;;;4953794;28;46926;-88
2022/10/05 06:31:16;;;;;;;;;0.00;0.00;;;;;;;;4954666;28;45355;-88
2022/10/05 06:33:49;;;;;;;;;0.00;0.00;;;;;;;;4952286;28;45361;-89
2022/10/05 06:36:27;;;;;;;;;0.00;0.00;;;;;;;;4955094;28;45588;-88
2022/10/05 06:38:53;;;;;;;;;0.00;0.00;;;;;;;;4953805;28;48215;-89
2022/10/05 06:41:32;;;;;;;;;0.00;0.00;;;;;;;;4952461;28;45426;-90
2022/10/05 06:44:03;;;;;;;;;0.00;0.00;;;;;;;;4934370;28;45763;-88
2022/10/05 06:46:47;;;;;;;;;0.00;0.00;;;;;;;;4935395;28;45448;-89
2022/10/05 06:49:16;;;;;;;;;0.00;0.00;;;;;;;;4934530;28;45325;-88
2022/10/05 06:51:51;;;;;;;;;0.00;0.00;;;;;;;;4935137;28;45386;-89
2022/10/05 06:54:30;;;;;;;;;0.00;0.00;;;;;;;;4935336;28;45430;-88
2022/10/05 06:57:02;;;;;;;;;0.00;0.00;;;;;;;;4946904;28;45563;-89
2022/10/05 06:59:33;;;;;;;;;0.00;0.00;;;;;;;;4947108;28;45769;-88
2022/10/05 07:01:58;;;;;;;;;0.00;0.00;;;;;;;;4956291;28;45399;-88
2022/10/05 07:04:36;;;;;;;;;0.00;0.00;;;;;;;;4954049;28;45487;-88
2022/10/05 07:07:08;;;;;;;;;0.00;0.00;;;;;;;;4949548;28;45474;-88
2022/10/05 07:09:46;;;;;;;;;0.00;0.00;;;;;;;;4955259;28;45437;-87
2022/10/05 07:12:11;;;;;;;;;0.00;0.00;;;;;;;;4953887;28;45939;-87
2022/10/05 07:14:55;;;;;;;;;0.00;0.00;;;;;;;;4953004;28;45480;-88
2022/10/05 07:17:37;;;;;;;;;0.00;0.00;;;;;;;;4950851;28;45382;-87
2022/10/05 07:20:02;;;;;;;;;0.00;0.00;;;;;;;;4954784;28;48471;-87
2022/10/05 07:22:46;;;;;;;;;0.00;0.00;;;;;;;;4951954;28;45409;-88
2022/10/05 07:25:30;;;;;;;;;0.00;0.00;;;;;;;;4954456;28;45453;-88
2022/10/05 07:28:04;;;;;;;;;0.00;0.00;;;;;;;;4949740;28;45315;-86
2022/10/05 07:30:30;;;;;;;;;0.00;0.00;;;;;;;;4956175;28;45444;-88
2022/10/05 07:32:59;;;;;;;;;0.00;0.00;;;;;;;;4954077;28;45917;-89
2022/10/05 07:38:26;;;;;;;;;0.00;0.00;;;;;;;;4959734;28;45798;-89
2022/10/05 07:40:56;;;;;;;;;0.00;0.00;;;;;;;;4958211;28;45675;-88
2022/10/05 07:43:32;;;;;;;;;0.00;0.00;;;;;;;;4959936;28;45659;-89
2022/10/05 07:46:04;;;;;;;;;0.00;0.00;;;;;;;;4956059;28;45522;-88
2022/10/05 07:48:48;;;;;;;;;0.00;0.00;;;;;;;;4959501;28;45460;-88
2022/10/05 07:51:44;;;;;;;;;0.00;0.00;;;;;;;;4958232;28;46444;-89
2022/10/05 07:54:12;;;;;;;;;0.00;0.00;;;;;;;;4950917;28;45583;-88
2022/10/05 07:56:39;;;;;;;;;0.00;0.00;;;;;;;;4958012;28;45402;-89
2022/10/05 07:59:09;;;;;;;;;0.00;0.00;;;;;;;;4958264;28;45763;-89
2022/10/05 08:01:36;;;;;;;;;0.00;0.00;;;;;;;;4946160;28;47369;-89
2022/10/05 08:04:20;;;;;;;;;0.00;0.00;;;;;;;;4953199;28;45325;-89
2022/10/05 08:06:53;;;;;;;;;0.00;0.00;;;;;;;;4954984;28;45601;-89
2022/10/05 08:09:25;;;;;;;;;0.00;0.00;;;;;;;;4949880;28;45715;-89
2022/10/05 08:11:55;;;;;;;;;0.00;0.00;;;;;;;;4957566;28;46403;-90
2022/10/05 08:14:39;;;;;;;;;0.00;0.00;;;;;;;;4952448;28;45742;-89
2022/10/05 08:17:10;;;;;;;;;0.00;0.00;;;;;;;;4953745;28;45751;-90
2022/10/05 08:19:40;;;;;;;;;0.00;0.00;;;;;;;;4950900;28;45520;-89
2022/10/05 08:22:08;;;;;;;;;0.00;0.00;;;;;;;;4954070;28;46738;-89
2022/10/05 08:24:42;;;;;;;;;0.00;0.00;;;;;;;;4950355;28;46030;-88
2022/10/05 08:27:24;;;;;;;;;0.00;0.00;;;;;;;;4957808;28;45780;-90
2022/10/05 08:29:55;;;;;;;;;0.00;0.00;;;;;;;;4966867;28;45430;-90
2022/10/05 08:32:23;;;;;;;;;0.00;0.00;;;;;;;;4955366;28;47175;-90
2022/10/05 08:35:02;;;;;;;;;0.00;0.00;;;;;;;;4952993;28;45337;-91
2022/10/05 08:37:34;;;;;;;;;0.00;0.00;;;;;;;;4958210;28;45394;-94
2022/10/05 08:40:22;;;;;;;;;0.00;0.00;;;;;;;;4958896;28;45547;-88
2022/10/05 08:42:50;;;;;;;;;0.00;0.00;;;;;;;;4954479;28;46689;-89
2022/10/05 08:45:27;;;;;;;;;0.00;0.00;;;;;;;;4952595;28;45989;-90
2022/10/05 08:48:01;;;;;;;;;0.00;0.00;;;;;;;;4953616;28;45688;-89
2022/10/05 08:50:36;;;;;;;;;0.00;0.00;;;;;;;;4956195;28;45542;-90
2022/10/05 08:53:20;;;;;;;;;0.00;0.00;;;;;;;;4956006;28;48231;-90
2022/10/05 08:56:04;;;;;;;;;0.00;0.00;;;;;;;;4952158;28;45312;-90
2022/10/05 08:58:41;;;;;;;;;0.00;0.00;;;;;;;;4957645;28;45645;-89
2022/10/05 09:01:13;;;;;;;;;0.00;0.00;;;;;;;;4956516;28;45354;-89
2022/10/05 09:03:47;;;;;;;;;0.00;0.00;;;;;;;;4957569;28;46329;-90
2022/10/05 09:06:24;;;;;;;;;0.00;0.00;;;;;;;;4955878;28;45547;-89
2022/10/05 09:08:50;;;;;;;;;0.00;0.00;;;;;;;;4956413;28;46811;-90
2022/10/05 09:11:31;;;;;;;;;0.00;0.00;;;;;;;;4955029;28;45498;-91
2022/10/05 09:14:12;;;;;;;;;0.00;0.00;;;;;;;;4954627;28;47223;-94
2022/10/05 09:16:40;;;;;;;;;0.00;0.00;;;;;;;;4956550;28;45502;-93
2022/10/05 09:19:21;;;;;;;;;0.00;0.00;;;;;;;;4954899;28;45851;-93
2022/10/05 09:21:57;;;;;;;;;0.00;0.00;;;;;;;;4954409;28;45316;-91
2022/10/05 09:24:22;;;;;;;;;0.00;0.00;;;;;;;;4956775;28;45396;-91
2022/10/05 09:27:23;;;;;;;;;0.00;0.00;;;;;;;;4954870;28;45545;-92
2022/10/05 09:30:04;;;;;;;;;0.00;0.00;;;;;;;;4893936;28;45486;-90
2022/10/05 09:32:29;;;;;;;;;0.00;0.00;;;;;;;;4890897;28;45871;-93
2022/10/05 09:35:08;;;;;;;;;0.00;0.00;;;;;;;;4895478;28;46940;-90
2022/10/05 09:37:37;;;;;;;;;0.00;0.00;;;;;;;;4892818;28;45428;-90
2022/10/05 09:40:18;;;;;;;;;0.00;0.00;;;;;;;;4891891;28;45612;-89
2022/10/05 09:42:43;;;;;;;;;0.00;0.00;;;;;;;;4874217;29;45521;-89
2022/10/05 09:45:20;;;;;;;;;0.00;0.00;;;;;;;;4891948;28;45815;-87
2022/10/05 09:47:51;;;;;;;;;0.00;0.00;;;;;;;;4895229;28;45535;-87
2022/10/05 09:50:16;;;;;;;;;0.00;0.00;;;;;;;;4892716;28;45677;-89
2022/10/05 09:52:51;;;;;;;;;0.00;0.00;;;;;;;;4878371;29;45368;-89
2022/10/05 09:55:30;;;;;;;;;0.00;0.00;;;;;;;;4895936;28;46612;-89
2022/10/05 09:58:01;;;;;;;;;0.00;0.00;;;;;;;;4899172;28;45489;-91
2022/10/05 10:00:45;;;;;;;;;0.00;0.00;;;;;;;;4897943;28;45454;-89
2022/10/05 10:03:42;;;;;;;;;0.00;0.00;;;;;;;;4897721;28;45490;-88
2022/10/05 10:06:11;;;;;;;;;0.00;0.00;;;;;;;;4954532;28;46559;-89
2022/10/05 10:08:56;;;;;;;;;0.00;0.00;;;;;;;;4956501;28;45976;-90
2022/10/05 10:11:31;;;;;;;;;0.00;0.00;;;;;;;;4956470;28;45470;-93
2022/10/05 10:14:07;;;;;;;;;0.00;0.00;;;;;;;;4955186;28;45646;-90
2022/10/05 10:16:35;;;;;;;;;0.00;0.00;;;;;;;;4953788;28;46510;-88
2022/10/05 10:19:11;;;;;;;;;0.00;0.00;;;;;;;;4958159;28;45469;-89
2022/10/05 10:21:41;;;;;;;;;0.00;0.00;;;;;;;;4955225;28;45397;-91
2022/10/05 10:24:17;;;;;;;;;0.00;0.00;;;;;;;;4955972;28;45682;-92
2022/10/05 10:26:52;;;;;;;;;0.00;0.00;;;;;;;;4958435;28;46436;-93
2022/10/05 10:29:36;;;;;;;;;0.00;0.00;;;;;;;;4957675;28;45792;-93
2022/10/05 10:32:01;;;;;;;;;0.00;0.00;;;;;;;;4970830;28;45422;-94
2022/10/05 10:34:36;;;;;;;;;0.00;0.00;;;;;;;;4951818;28;45490;-92
2022/10/05 10:37:05;;;;;;;;;0.00;0.00;;;;;;;;4956129;28;47145;-89
2022/10/05 10:39:47;;;;;;;;;0.00;0.00;;;;;;;;4951814;28;45810;-93
2022/10/05 10:42:30;;;;;;;;;0.00;0.00;;;;;;;;4954930;28;45374;-90
2022/10/05 10:44:59;;;;;;;;;0.00;0.00;;;;;;;;4948235;28;45585;-90
2022/10/05 10:47:37;;;;;;;;;0.00;0.00;;;;;;;;4949541;28;46614;-90
2022/10/05 10:50:23;;;;;;;;;0.00;0.00;;;;;;;;4956057;28;45484;-89
2022/10/05 10:53:08;;;;;;;;;0.00;0.00;;;;;;;;4953360;28;45588;-90
2022/10/05 10:55:36;;;;;;;;;0.00;0.00;;;;;;;;4956484;28;45562;-91
2022/10/05 10:58:02;;;;;;;;;0.00;0.00;;;;;;;;4957799;28;46536;-90
2022/10/05 11:00:30;;;;;;;;;0.00;0.00;;;;;;;;4957327;28;45571;-90
2022/10/05 11:03:14;;;;;;;;;0.00;0.00;;;;;;;;4960796;28;45760;-90
2022/10/05 11:06:07;;;;;;;;;0.00;0.00;;;;;;;;4957136;28;45467;-91
2022/10/05 11:08:59;;;;;;;;;0.00;0.00;;;;;;;;4961726;28;45939;-91
2022/10/05 11:11:45;;;;;;;;;0.00;0.00;;;;;;;;4935902;28;45607;-91
2022/10/05 11:14:28;;;;;;;;;0.00;0.00;;;;;;;;4922295;28;45443;-90
2022/10/05 11:17:06;;;;;;;;;0.00;0.00;;;;;;;;4943715;28;45455;-90
2022/10/05 11:19:49;;;;;;;;;0.00;0.00;;;;;;;;4934905;28;47557;-89
2022/10/05 11:22:34;;;;;;;;;0.00;0.00;;;;;;;;4923856;28;45575;-87
2022/10/05 11:25:05;;;;;;;;;0.00;0.00;;;;;;;;4923828;28;46824;-88
2022/10/05 11:27:37;;;;;;;;;0.00;0.00;;;;;;;;4936022;28;45740;-90
2022/10/05 11:30:02;;;;;;;;;0.00;0.00;;;;;;;;4917490;28;48263;-91
2022/10/05 11:32:49;;;;;;;;;0.00;0.00;;;;;;;;4922227;28;45292;-93
2022/10/05 11:35:33;;;;;;;;;0.00;0.00;;;;;;;;4940564;28;45332;-90
2022/10/05 11:38:04;;;;;;;;;0.00;0.00;;;;;;;;4938126;28;45326;-90
2022/10/05 11:40:46;;;;;;;;;0.00;0.00;;;;;;;;4936769;28;45608;-90
2022/10/05 11:43:29;;;;;;;;;0.00;0.00;;;;;;;;4938103;28;45511;-89
2022/10/05 11:45:57;;;;;;;;;0.00;0.00;;;;;;;;4934589;28;45494;-88
2022/10/05 11:48:34;;;;;;;;;0.00;0.00;;;;;;;;4941548;28;45353;-90
2022/10/05 11:51:18;;;;;;;;;0.00;0.00;;;;;;;;4961277;28;48334;-89
2022/10/05 11:53:56;;;;;;;;;0.00;0.00;;;;;;;;4959211;28;45503;-90
2022/10/05 11:56:24;;;;;;;;;0.00;0.00;;;;;;;;4959376;28;45447;-93
2022/10/05 11:58:56;;;;;;;;;0.00;0.00;;;;;;;;4958300;28;46021;-91
2022/10/05 12:01:33;;;;;;;;;0.00;0.00;;;;;;;;4952541;28;47634;-91
2022/10/05 12:03:58;;;;;;;;;0.00;0.00;;;;;;;;4954582;28;45386;-91
2022/10/05 12:06:29;;;;;;;;;0.00;0.00;;;;;;;;4958276;28;45638;-91
2022/10/05 12:09:03;;;;;;;;;0.00;0.00;;;;;;;;4958044;28;45361;-94
2022/10/05 12:11:48;;;;;;;;;0.00;0.00;;;;;;;;4956923;28;47111;-89
2022/10/05 12:14:32;;;;;;;;;0.00;0.00;;;;;;;;4954264;28;45483;-93
2022/10/05 12:16:58;;;;;;;;;0.00;0.00;;;;;;;;4957579;28;45500;-90
2022/10/05 12:19:28;;;;;;;;;0.00;0.00;;;;;;;;4953056;28;45758;-89
2022/10/05 12:21:58;;;;;;;;;0.00;0.00;;;;;;;;4953781;28;46265;-90
2022/10/05 12:24:42;;;;;;;;;0.00;0.00;;;;;;;;4956132;28;45580;-91
2022/10/05 12:27:14;;;;;;;;;0.00;0.00;;;;;;;;4958830;28;45443;-91
2022/10/05 12:29:47;;;;;;;;;0.00;0.00;;;;;;;;4956093;28;45313;-90
2022/10/05 12:32:16;;;;;;;;;0.00;0.00;;;;;;;;4954378;28;48193;-91
2022/10/05 12:35:05;;;;;;;;;0.00;0.00;;;;;;;;4955744;28;45333;-90
2022/10/05 12:37:36;;;;;;;;;0.00;0.00;;;;;;;;4951453;28;45821;-90
2022/10/05 12:40:05;;;;;;;;;0.00;0.00;;;;;;;;4957360;28;45781;-90
2022/10/05 12:42:35;;;;;;;;;0.00;0.00;;;;;;;;4955512;28;46923;-89
2022/10/05 12:45:15;;;;;;;;;0.00;0.00;;;;;;;;4956773;28;45843;-88
2022/10/05 12:47:52;;;;;;;;;0.00;0.00;;;;;;;;4957614;28;45386;-91
2022/10/05 12:50:46;;;;;;;;;0.00;0.00;;;;;;;;4959162;28;45483;-92
2022/10/05 12:53:21;;;;;;;;;0.00;0.00;;;;;;;;4881691;28;47409;-90
2022/10/05 12:56:01;;;;;;;;;0.00;0.00;;;;;;;;4893745;28;45347;-90
2022/10/05 12:58:45;;;;;;;;;0.00;0.00;;;;;;;;4883874;28;45688;-90
2022/10/05 13:01:33;;;;;;;;;0.00;0.00;;;;;;;;4896835;28;45725;-90
2022/10/05 13:03:58;;;;;;;;;0.00;0.00;;;;;;;;4880142;29;47664;-90
2022/10/05 13:06:27;;;;;;;;;0.00;0.00;;;;;;;;4877819;29;45636;-90
2022/10/05 13:09:01;;;;;;;;;0.00;0.00;;;;;;;;4879243;29;45444;-90
2022/10/05 13:11:36;;;;;;;;;3.00;0.00;;;;;;;;4862247;29;45690;-90
2022/10/05 13:14:15;;;;;;;;;0.00;0.00;;;;;;;;4876629;29;46540;-90
2022/10/05 13:17:03;;;;;;;;;0.00;0.00;;;;;;;;4878051;29;45444;-89
2022/10/05 13:19:34;;;;;;;;;0.00;0.00;;;;;;;;4861841;29;45431;-89
2022/10/05 13:22:08;;;;;;;;;0.00;0.00;;;;;;;;4878346;29;45485;-89
2022/10/05 13:24:38;;;;;;;;;0.00;0.00;;;;;;;;4878233;29;45529;-89
2022/10/05 13:27:07;;;;;;;;;0.00;0.00;;;;;;;;4873535;29;45592;-90
2022/10/05 13:29:45;;;;;;;;;0.00;0.00;;;;;;;;4893683;28;46375;-90
2022/10/05 13:32:29;;;;;;;;;0.00;0.00;;;;;;;;4915742;28;45390;-89
2022/10/05 13:34:54;;;;;;;;;0.00;0.00;;;;;;;;4911163;28;45492;-89
2022/10/05 13:37:28;;;;;;;;;0.00;0.00;;;;;;;;4897480;28;45439;-90
2022/10/05 13:40:09;;;;;;;;;0.00;0.00;;;;;;;;4899302;28;45468;-88
2022/10/05 13:42:53;;;;;;;;;0.00;0.00;;;;;;;;4954210;28;45400;-89
2022/10/05 13:45:20;;;;;;;;;0.00;0.00;;;;;;;;4956906;28;45466;-89
2022/10/05 13:48:04;;;;;;;;;0.00;0.00;;;;;;;;4954194;28;45413;-90
2022/10/05 13:50:30;;;;;;;;;0.00;0.00;;;;;;;;4955365;28;45532;-90
2022/10/05 13:52:58;;;;;;;;;3.33;2.33;;;;;;;;4953573;28;45489;-89
2022/10/05 13:55:41;;;;;;;;;0.00;0.00;;;;;;;;4956884;28;45430;-89
2022/10/05 13:58:31;;;;;;;;;0.00;0.00;;;;;;;;4953115;28;45693;-88
2022/10/05 14:01:01;;;;;;;;;0.00;0.00;;;;;;;;4949939;28;45508;-89
2022/10/05 14:03:26;;;;;;;;;0.00;0.00;;;;;;;;4957752;28;45590;-89
2022/10/05 14:05:52;;;;;;;;;0.00;0.00;;;;;;;;4954450;28;46466;-90
2022/10/05 14:08:17;;;;;;;;;0.00;0.00;;;;;;;;4957120;28;45561;-89
2022/10/05 14:10:45;;;;;;;;;0.00;0.00;;;;;;;;4953874;28;46491;-88
2022/10/05 14:13:16;;;;;;;;;0.00;0.00;;;;;;;;4952614;28;45431;-89
2022/10/05 14:15:53;;;;;;;;;0.00;0.00;;;;;;;;4955821;28;45453;-88
2022/10/05 14:18:23;;;;;;;;;0.00;0.00;;;;;;;;4957132;28;45280;-89
2022/10/05 14:21:03;;;;;;;;;0.00;0.00;;;;;;;;4955690;28;45439;-89
2022/10/05 14:23:28;;;;;;;;;0.00;0.00;;;;;;;;4957539;28;45340;-90
2022/10/05 14:25:54;;;;;;;;;0.00;0.00;;;;;;;;4949402;28;48156;-89
2022/10/05 14:28:27;;;;;;;;;0.00;0.00;;;;;;;;4950327;28;46813;-89
2022/10/05 14:30:54;;;;;;;;;0.00;0.00;;;;;;;;4955050;28;45506;-90
2022/10/05 14:33:20;;;;;;;;;0.00;0.00;;;;;;;;4955121;28;45395;-88
2022/10/05 14:35:47;;;;;;;;;0.00;0.00;;;;;;;;4954472;28;47260;-89
2022/10/05 14:38:25;;;;;;;;;0.00;0.00;;;;;;;;4954659;28;46286;-89
2022/10/05 14:41:08;;;;;;;;;0.00;0.00;;;;;;;;4956641;28;45528;-90
2022/10/05 14:43:34;;;;;;;;;0.00;0.00;;;;;;;;4954366;28;46430;-89
2022/10/05 14:46:01;;;;;;;;;0.00;0.00;;;;;;;;4953296;28;45780;-90
2022/10/05 14:48:28;;;;;;;;;0.00;0.00;;;;;;;;4956109;28;45413;-90
2022/10/05 14:50:55;;;;;;;;;0.00;0.00;;;;;;;;4954296;28;46275;-90
2022/10/05 14:53:23;;;;;;;;;0.00;0.00;;;;;;;;4957763;28;45717;-92
2022/10/05 14:55:48;;;;;;;;;0.00;0.00;;;;;;;;4955580;28;45573;-86
2022/10/05 14:58:34;;;;;;;;;0.00;0.00;;;;;;;;4957091;28;45399;-90
2022/10/05 15:01:13;;;;;;;;;0.00;0.00;;;;;;;;4950000;28;45470;-96
2022/10/05 15:03:39;;;;;;;;;0.00;0.00;;;;;;;;4956576;28;45478;-87
2022/10/05 15:06:07;;;;;;;;;3.00;3.00;;;;;;;;4955070;28;46131;-90
2022/10/05 15:08:47;;;;;;;;;0.00;0.00;;;;;;;;4955515;28;45659;-89
2022/10/05 15:11:22;;;;;;;;;0.00;0.00;;;;;;;;4951655;28;45369;-88
2022/10/05 15:13:47;;;;;;;;;0.00;0.00;;;;;;;;4956872;28;45897;-89
2022/10/05 15:16:16;;;;;;;;;0.00;0.00;;;;;;;;4943156;28;46429;-88
2022/10/05 15:18:47;;;;;;;;;0.00;0.00;;;;;;;;4944947;28;45487;-89
2022/10/05 15:21:31;;;;;;;;;0.00;0.00;;;;;;;;4951641;28;45420;-88
2022/10/05 15:24:00;;;;;;;;;0.00;0.00;;;;;;;;4953313;28;45839;-88
2022/10/05 15:26:32;;;;;;;;;0.00;0.00;;;;;;;;4954304;28;46259;-88
2022/10/05 15:28:57;;;;;;;;;0.00;0.00;;;;;;;;4951900;28;45799;-88
2022/10/05 15:31:28;;;;;;;;;0.00;0.00;;;;;;;;4954515;28;45721;-89
2022/10/05 15:34:06;;;;;;;;;0.00;0.00;;;;;;;;4954073;28;45661;-89
2022/10/05 15:36:35;;;;;;;;;0.00;0.00;;;;;;;;4953146;28;48418;-89
2022/10/05 15:39:03;;;;;;;;;0.00;0.00;;;;;;;;4952835;28;46006;-88
2022/10/05 15:41:43;;;;;;;;;0.00;0.00;;;;;;;;4953806;28;45538;-87
2022/10/05 15:44:09;;;;;;;;;0.00;0.00;;;;;;;;4949834;28;45466;-88
2022/10/05 15:46:43;;;;;;;;;0.00;0.00;;;;;;;;4955269;28;45970;-88
2022/10/05 15:49:17;;;;;;;;;0.00;0.00;;;;;;;;4951893;28;45710;-89
2022/10/05 15:51:48;;;;;;;;;0.00;0.00;;;;;;;;4955645;28;46276;-88
2022/10/05 15:54:42;;;;;;;;;0.00;0.00;;;;;;;;4951542;28;45486;-89
2022/10/05 15:57:16;;;;;;;;;0.00;0.00;;;;;;;;4952987;28;48100;-89